sensor_id;sensor_type;location;lat;lon;timestamp;temperature;humidity
15625;DHT22;7912;51.376;6.126;2023-07-09T00:02:24;27.90;91.00
15625;DHT22;7912;51.376;6.126;2023-07-09T00:04:52;27.90;91.00
15625;DHT22;7912;51.376;6.126;2023-07-09T00:07:31;27.80;91.00
15625;DHT22;7912;51.376;6.126;2023-07-09T00:09:59;27.80;91.30
15625;DHT22;7912;51.376;6.126;2023-07-09T00:12:27;27.80;91.10
15625;DHT22;7912;51.376;6.126;2023-07-09T00:14:55;27.70;91.00
15625;DHT22;7912;51.376;6.126;2023-07-09T00:17:29;27.70;91.20
15625;DHT22;7912;51.376;6.126;2023-07-09T00:19:58;27.70;91.30
15625;DHT22;7912;51.376;6.126;2023-07-09T00:22:26;27.60;91.20
15625;DHT22;7912;51.376;6.126;2023-07-09T00:28:40;27.60;91.60
15625;DHT22;7912;51.376;6.126;2023-07-09T00:31:27;27.50;91.20
15625;DHT22;7912;51.376;6.126;2023-07-09T00:33:55;27.50;91.80
15625;DHT22;7912;51.376;6.126;2023-07-09T00:36:29;27.40;91.40
15625;DHT22;7912;51.376;6.126;2023-07-09T00:38:58;27.40;91.60
15625;DHT22;7912;51.376;6.126;2023-07-09T00:41:35;27.40;91.70
15625;DHT22;7912;51.376;6.126;2023-07-09T00:52:07;27.10;92.20
15625;DHT22;7912;51.376;6.126;2023-07-09T00:54:51;27.10;92.30
15625;DHT22;7912;51.376;6.126;2023-07-09T00:57:22;27.00;92.20
15625;DHT22;7912;51.376;6.126;2023-07-09T01:00:00;27.00;92.60
15625;DHT22;7912;51.376;6.126;2023-07-09T01:02:42;27.00;92.80
15625;DHT22;7912;51.376;6.126;2023-07-09T01:05:14;26.90;92.70
15625;DHT22;7912;51.376;6.126;2023-07-09T01:07:44;26.90;93.00
15625;DHT22;7912;51.376;6.126;2023-07-09T01:10:18;26.80;93.00
15625;DHT22;7912;51.376;6.126;2023-07-09T01:12:48;26.80;93.10
15625;DHT22;7912;51.376;6.126;2023-07-09T01:15:16;26.70;93.20
15625;DHT22;7912;51.376;6.126;2023-07-09T01:17:43;26.70;93.20
15625;DHT22;7912;51.376;6.126;2023-07-09T01:20:17;26.70;93.30
15625;DHT22;7912;51.376;6.126;2023-07-09T01:22:51;26.60;93.50
15625;DHT22;7912;51.376;6.126;2023-07-09T01:25:22;26.60;93.40
15625;DHT22;7912;51.376;6.126;2023-07-09T01:27:51;26.60;93.40
15625;DHT22;7912;51.376;6.126;2023-07-09T01:32:51;26.50;93.50
15625;DHT22;7912;51.376;6.126;2023-07-09T01:35:22;26.50;93.70
15625;DHT22;7912;51.376;6.126;2023-07-09T01:37:50;26.50;93.70
15625;DHT22;7912;51.376;6.126;2023-07-09T01:40:21;26.40;93.70
15625;DHT22;7912;51.376;6.126;2023-07-09T01:42:59;26.40;93.90
15625;DHT22;7912;51.376;6.126;2023-07-09T01:45:28;26.40;94.00
15625;DHT22;7912;51.376;6.126;2023-07-09T01:47:57;26.40;94.00
15625;DHT22;7912;51.376;6.126;2023-07-09T01:50:25;26.30;94.00
15625;DHT22;7912;51.376;6.126;2023-07-09T01:52:54;26.40;94.00
15625;DHT22;7912;51.376;6.126;2023-07-09T01:55:22;26.30;94.10
15625;DHT22;7912;51.376;6.126;2023-07-09T01:57:49;26.30;94.20
15625;DHT22;7912;51.376;6.126;2023-07-09T02:00:18;26.30;94.30
15625;DHT22;7912;51.376;6.126;2023-07-09T02:02:46;26.30;94.40
15625;DHT22;7912;51.376;6.126;2023-07-09T02:05:17;26.20;94.40
15625;DHT22;7912;51.376;6.126;2023-07-09T02:07:46;26.20;94.60
15625;DHT22;7912;51.376;6.126;2023-07-09T02:10:17;26.20;94.60
15625;DHT22;7912;51.376;6.126;2023-07-09T02:12:46;26.20;94.70
15625;DHT22;7912;51.376;6.126;2023-07-09T02:15:14;26.20;94.70
15625;DHT22;7912;51.376;6.126;2023-07-09T02:17:42;26.20;94.70
15625;DHT22;7912;51.376;6.126;2023-07-09T02:20:10;26.20;94.70
15625;DHT22;7912;51.376;6.126;2023-07-09T02:22:39;26.10;94.90
15625;DHT22;7912;51.376;6.126;2023-07-09T02:25:07;26.10;95.10
15625;DHT22;7912;51.376;6.126;2023-07-09T02:27:36;26.10;95.10
15625;DHT22;7912;51.376;6.126;2023-07-09T02:30:05;26.00;95.10
15625;DHT22;7912;51.376;6.126;2023-07-09T02:32:34;26.00;95.20
15625;DHT22;7912;51.376;6.126;2023-07-09T02:35:02;26.00;95.30
15625;DHT22;7912;51.376;6.126;2023-07-09T02:37:31;25.90;95.80
15625;DHT22;7912;51.376;6.126;2023-07-09T02:40:09;25.90;95.40
15625;DHT22;7912;51.376;6.126;2023-07-09T02:42:38;25.90;96.00
15625;DHT22;7912;51.376;6.126;2023-07-09T02:45:06;25.90;95.80
15625;DHT22;7912;51.376;6.126;2023-07-09T02:47:34;25.80;95.90
15625;DHT22;7912;51.376;6.126;2023-07-09T02:50:02;25.80;95.90
15625;DHT22;7912;51.376;6.126;2023-07-09T02:52:30;25.80;96.10
15625;DHT22;7912;51.376;6.126;2023-07-09T02:54:57;25.70;96.10
15625;DHT22;7912;51.376;6.126;2023-07-09T02:57:24;25.70;96.20
15625;DHT22;7912;51.376;6.126;2023-07-09T02:59:52;25.70;96.30
15625;DHT22;7912;51.376;6.126;2023-07-09T03:02:19;25.70;96.50
15625;DHT22;7912;51.376;6.126;2023-07-09T03:04:46;25.70;96.40
15625;DHT22;7912;51.376;6.126;2023-07-09T03:07:13;25.70;96.50
15625;DHT22;7912;51.376;6.126;2023-07-09T03:09:41;25.60;96.60
15625;DHT22;7912;51.376;6.126;2023-07-09T03:12:08;25.60;96.70
15625;DHT22;7912;51.376;6.126;2023-07-09T03:14:36;25.60;96.70
15625;DHT22;7912;51.376;6.126;2023-07-09T03:17:04;25.60;96.90
15625;DHT22;7912;51.376;6.126;2023-07-09T03:19:31;25.50;96.80
15625;DHT22;7912;51.376;6.126;2023-07-09T03:22:02;25.50;97.00
15625;DHT22;7912;51.376;6.126;2023-07-09T03:24:31;25.50;97.30
15625;DHT22;7912;51.376;6.126;2023-07-09T03:26:59;25.50;97.30
15625;DHT22;7912;51.376;6.126;2023-07-09T03:29:26;25.50;97.50
15625;DHT22;7912;51.376;6.126;2023-07-09T03:31:53;25.40;97.50
15625;DHT22;7912;51.376;6.126;2023-07-09T03:34:20;25.40;97.70
15625;DHT22;7912;51.376;6.126;2023-07-09T03:36:47;25.40;97.80
15625;DHT22;7912;51.376;6.126;2023-07-09T03:39:15;25.30;97.80
15625;DHT22;7912;51.376;6.126;2023-07-09T03:41:42;25.30;98.00
15625;DHT22;7912;51.376;6.126;2023-07-09T03:44:10;25.30;98.20
15625;DHT22;7912;51.376;6.126;2023-07-09T03:46:37;25.30;98.50
15625;DHT22;7912;51.376;6.126;2023-07-09T03:49:04;25.20;98.50
15625;DHT22;7912;51.376;6.126;2023-07-09T03:51:32;25.20;98.60
15625;DHT22;7912;51.376;6.126;2023-07-09T03:53:59;25.20;98.80
15625;DHT22;7912;51.376;6.126;2023-07-09T03:56:26;25.20;99.00
15625;DHT22;7912;51.376;6.126;2023-07-09T03:58:54;25.20;99.10
15625;DHT22;7912;51.376;6.126;2023-07-09T04:01:21;25.10;99.10
15625;DHT22;7912;51.376;6.126;2023-07-09T04:03:48;25.10;99.30
15625;DHT22;7912;51.376;6.126;2023-07-09T04:06:16;25.20;99.40
15625;DHT22;7912;51.376;6.126;2023-07-09T04:08:43;25.20;99.60
15625;DHT22;7912;51.376;6.126;2023-07-09T04:11:10;25.20;99.50
15625;DHT22;7912;51.376;6.126;2023-07-09T04:13:38;25.20;99.60
15625;DHT22;7912;51.376;6.126;2023-07-09T04:16:05;25.30;99.60
15625;DHT22;7912;51.376;6.126;2023-07-09T04:18:33;25.30;99.50
15625;DHT22;7912;51.376;6.126;2023-07-09T04:21:02;25.30;99.50
15625;DHT22;7912;51.376;6.126;2023-07-09T04:23:30;25.30;99.50
15625;DHT22;7912;51.376;6.126;2023-07-09T04:25:57;25.40;99.70
15625;DHT22;7912;51.376;6.126;2023-07-09T04:28:25;25.50;99.70
15625;DHT22;7912;51.376;6.126;2023-07-09T04:30:52;25.50;99.70
15625;DHT22;7912;51.376;6.126;2023-07-09T04:33:20;25.50;99.60
15625;DHT22;7912;51.376;6.126;2023-07-09T04:35:49;25.60;99.60
15625;DHT22;7912;51.376;6.126;2023-07-09T04:38:16;25.60;99.60
15625;DHT22;7912;51.376;6.126;2023-07-09T04:40:44;25.70;99.80
15625;DHT22;7912;51.376;6.126;2023-07-09T04:43:13;25.70;99.60
15625;DHT22;7912;51.376;6.126;2023-07-09T04:45:40;25.80;99.70
15625;DHT22;7912;51.376;6.126;2023-07-09T04:48:07;25.90;99.80
15625;DHT22;7912;51.376;6.126;2023-07-09T04:50:36;25.90;99.80
15625;DHT22;7912;51.376;6.126;2023-07-09T04:53:03;26.00;99.80
15625;DHT22;7912;51.376;6.126;2023-07-09T04:55:31;26.10;99.80
15625;DHT22;7912;51.376;6.126;2023-07-09T04:57:58;26.20;99.60
15625;DHT22;7912;51.376;6.126;2023-07-09T05:00:26;26.20;99.60
15625;DHT22;7912;51.376;6.126;2023-07-09T05:02:53;26.20;99.50
15625;DHT22;7912;51.376;6.126;2023-07-09T05:05:21;26.30;99.40
15625;DHT22;7912;51.376;6.126;2023-07-09T05:07:48;26.30;99.30
15625;DHT22;7912;51.376;6.126;2023-07-09T05:10:15;26.40;99.20
15625;DHT22;7912;51.376;6.126;2023-07-09T05:12:54;26.50;99.10
15625;DHT22;7912;51.376;6.126;2023-07-09T05:15:22;26.50;99.10
15625;DHT22;7912;51.376;6.126;2023-07-09T05:17:50;26.60;99.00
15625;DHT22;7912;51.376;6.126;2023-07-09T05:20:18;26.60;98.90
15625;DHT22;7912;51.376;6.126;2023-07-09T05:22:45;26.70;99.00
15625;DHT22;7912;51.376;6.126;2023-07-09T05:25:13;26.80;98.80
15625;DHT22;7912;51.376;6.126;2023-07-09T05:27:40;26.80;98.60
15625;DHT22;7912;51.376;6.126;2023-07-09T05:30:08;26.90;98.50
15625;DHT22;7912;51.376;6.126;2023-07-09T05:32:37;27.00;98.50
15625;DHT22;7912;51.376;6.126;2023-07-09T05:35:04;27.00;98.30
15625;DHT22;7912;51.376;6.126;2023-07-09T05:37:32;27.10;98.20
15625;DHT22;7912;51.376;6.126;2023-07-09T05:40:00;27.20;98.10
15625;DHT22;7912;51.376;6.126;2023-07-09T05:42:27;27.30;98.00
15625;DHT22;7912;51.376;6.126;2023-07-09T05:44:54;27.40;98.00
15625;DHT22;7912;51.376;6.126;2023-07-09T05:47:21;27.50;98.00
15625;DHT22;7912;51.376;6.126;2023-07-09T05:49:49;27.50;97.80
15625;DHT22;7912;51.376;6.126;2023-07-09T05:52:19;27.60;97.70
15625;DHT22;7912;51.376;6.126;2023-07-09T05:54:49;27.60;97.50
15625;DHT22;7912;51.376;6.126;2023-07-09T05:57:18;27.70;97.40
15625;DHT22;7912;51.376;6.126;2023-07-09T05:59:45;27.80;97.40
15625;DHT22;7912;51.376;6.126;2023-07-09T06:02:17;27.90;97.20
15625;DHT22;7912;51.376;6.126;2023-07-09T06:04:47;27.90;97.10
15625;DHT22;7912;51.376;6.126;2023-07-09T06:07:17;28.00;97.10
15625;DHT22;7912;51.376;6.126;2023-07-09T06:09:48;28.10;97.00
15625;DHT22;7912;51.376;6.126;2023-07-09T06:12:15;28.20;97.00
15625;DHT22;7912;51.376;6.126;2023-07-09T06:14:42;28.20;96.90
15625;DHT22;7912;51.376;6.126;2023-07-09T06:17:10;28.30;96.90
15625;DHT22;7912;51.376;6.126;2023-07-09T06:19:38;28.40;96.70
15625;DHT22;7912;51.376;6.126;2023-07-09T06:22:06;28.50;96.60
15625;DHT22;7912;51.376;6.126;2023-07-09T06:24:33;28.50;96.60
15625;DHT22;7912;51.376;6.126;2023-07-09T06:27:01;28.60;96.40
15625;DHT22;7912;51.376;6.126;2023-07-09T06:29:28;28.80;96.40
15625;DHT22;7912;51.376;6.126;2023-07-09T06:31:55;28.80;96.30
15625;DHT22;7912;51.376;6.126;2023-07-09T06:34:23;29.00;96.20
15625;DHT22;7912;51.376;6.126;2023-07-09T06:36:50;29.10;96.40
15625;DHT22;7912;51.376;6.126;2023-07-09T06:39:18;29.30;96.10
15625;DHT22;7912;51.376;6.126;2023-07-09T06:41:46;29.50;95.90
15625;DHT22;7912;51.376;6.126;2023-07-09T06:44:14;29.70;95.90
15625;DHT22;7912;51.376;6.126;2023-07-09T06:46:41;29.90;95.60
15625;DHT22;7912;51.376;6.126;2023-07-09T06:49:09;30.10;95.50
15625;DHT22;7912;51.376;6.126;2023-07-09T06:51:36;30.30;95.20
15625;DHT22;7912;51.376;6.126;2023-07-09T06:54:03;30.60;95.10
15625;DHT22;7912;51.376;6.126;2023-07-09T06:56:31;30.90;94.80
15625;DHT22;7912;51.376;6.126;2023-07-09T06:58:59;31.20;94.00
15625;DHT22;7912;51.376;6.126;2023-07-09T07:01:26;31.60;93.50
15625;DHT22;7912;51.376;6.126;2023-07-09T07:03:53;31.90;92.90
15625;DHT22;7912;51.376;6.126;2023-07-09T07:06:21;32.20;92.40
15625;DHT22;7912;51.376;6.126;2023-07-09T07:08:48;32.50;92.10
15625;DHT22;7912;51.376;6.126;2023-07-09T07:11:16;32.90;91.30
15625;DHT22;7912;51.376;6.126;2023-07-09T07:13:43;33.20;90.90
15625;DHT22;7912;51.376;6.126;2023-07-09T07:16:12;33.50;90.20
15625;DHT22;7912;51.376;6.126;2023-07-09T07:18:39;33.80;89.10
15625;DHT22;7912;51.376;6.126;2023-07-09T07:21:06;34.00;88.10
15625;DHT22;7912;51.376;6.126;2023-07-09T07:23:34;34.30;86.80
15625;DHT22;7912;51.376;6.126;2023-07-09T07:26:01;34.60;84.90
15625;DHT22;7912;51.376;6.126;2023-07-09T07:28:34;34.80;83.60
15625;DHT22;7912;51.376;6.126;2023-07-09T07:31:06;35.10;81.70
15625;DHT22;7912;51.376;6.126;2023-07-09T07:33:35;35.30;80.90
15625;DHT22;7912;51.376;6.126;2023-07-09T07:36:05;35.40;80.70
15625;DHT22;7912;51.376;6.126;2023-07-09T07:38:36;35.70;80.00
15625;DHT22;7912;51.376;6.126;2023-07-09T07:41:03;35.80;79.10
15625;DHT22;7912;51.376;6.126;2023-07-09T07:43:31;36.10;78.20
15625;DHT22;7912;51.376;6.126;2023-07-09T07:45:58;36.30;77.10
15625;DHT22;7912;51.376;6.126;2023-07-09T07:48:26;36.50;76.30
15625;DHT22;7912;51.376;6.126;2023-07-09T07:51:02;36.80;75.60
15625;DHT22;7912;51.376;6.126;2023-07-09T07:53:49;37.00;73.30
15625;DHT22;7912;51.376;6.126;2023-07-09T07:56:16;37.30;72.30
15625;DHT22;7912;51.376;6.126;2023-07-09T07:58:43;37.50;72.50
15625;DHT22;7912;51.376;6.126;2023-07-09T08:01:31;37.70;71.40
15625;DHT22;7912;51.376;6.126;2023-07-09T08:03:59;37.90;69.10
15625;DHT22;7912;51.376;6.126;2023-07-09T08:06:26;38.10;69.30
15625;DHT22;7912;51.376;6.126;2023-07-09T08:08:53;38.30;68.20
15625;DHT22;7912;51.376;6.126;2023-07-09T08:11:21;38.50;67.80
15625;DHT22;7912;51.376;6.126;2023-07-09T08:13:48;38.70;67.70
15625;DHT22;7912;51.376;6.126;2023-07-09T08:16:16;38.80;67.20
15625;DHT22;7912;51.376;6.126;2023-07-09T08:18:45;39.00;67.10
15625;DHT22;7912;51.376;6.126;2023-07-09T08:21:12;39.20;67.10
15625;DHT22;7912;51.376;6.126;2023-07-09T08:23:39;39.40;66.60
15625;DHT22;7912;51.376;6.126;2023-07-09T08:26:07;39.60;66.00
15625;DHT22;7912;51.376;6.126;2023-07-09T08:28:35;39.80;65.10
15625;DHT22;7912;51.376;6.126;2023-07-09T08:31:02;39.90;64.30
15625;DHT22;7912;51.376;6.126;2023-07-09T08:33:30;40.10;63.30
15625;DHT22;7912;51.376;6.126;2023-07-09T08:36:00;40.20;62.00
15625;DHT22;7912;51.376;6.126;2023-07-09T08:38:28;40.40;61.00
15625;DHT22;7912;51.376;6.126;2023-07-09T08:41:08;40.40;61.30
15625;DHT22;7912;51.376;6.126;2023-07-09T08:49:25;40.60;59.10
15625;DHT22;7912;51.376;6.126;2023-07-09T08:52:35;40.80;59.40
15625;DHT22;7912;51.376;6.126;2023-07-09T08:55:14;40.90;59.00
15625;DHT22;7912;51.376;6.126;2023-07-09T08:57:55;41.00;58.50
15625;DHT22;7912;51.376;6.126;2023-07-09T09:00:32;41.10;58.50
15625;DHT22;7912;51.376;6.126;2023-07-09T09:03:26;41.10;58.00
15625;DHT22;7912;51.376;6.126;2023-07-09T09:05:57;41.30;57.50
15625;DHT22;7912;51.376;6.126;2023-07-09T09:08:48;41.30;57.60
15625;DHT22;7912;51.376;6.126;2023-07-09T09:14:48;41.50;57.10
15625;DHT22;7912;51.376;6.126;2023-07-09T09:17:26;41.70;57.20
15625;DHT22;7912;51.376;6.126;2023-07-09T09:20:01;41.70;56.70
15625;DHT22;7912;51.376;6.126;2023-07-09T09:23:04;41.80;56.50
15625;DHT22;7912;51.376;6.126;2023-07-09T09:25:39;41.90;55.70
15625;DHT22;7912;51.376;6.126;2023-07-09T09:28:09;42.10;56.00
15625;DHT22;7912;51.376;6.126;2023-07-09T09:30:37;42.20;56.20
15625;DHT22;7912;51.376;6.126;2023-07-09T09:33:09;42.30;55.80
15625;DHT22;7912;51.376;6.126;2023-07-09T09:35:41;42.50;55.00
15625;DHT22;7912;51.376;6.126;2023-07-09T09:38:22;42.70;54.90
15625;DHT22;7912;51.376;6.126;2023-07-09T09:40:49;42.80;54.30
15625;DHT22;7912;51.376;6.126;2023-07-09T09:43:19;42.90;54.10
15625;DHT22;7912;51.376;6.126;2023-07-09T09:45:49;43.10;53.80
15625;DHT22;7912;51.376;6.126;2023-07-09T09:48:18;43.20;53.40
15625;DHT22;7912;51.376;6.126;2023-07-09T09:50:48;43.30;53.00
15625;DHT22;7912;51.376;6.126;2023-07-09T09:53:21;43.40;53.60
15625;DHT22;7912;51.376;6.126;2023-07-09T09:55:55;43.40;52.30
15625;DHT22;7912;51.376;6.126;2023-07-09T09:58:30;43.40;52.20
15625;DHT22;7912;51.376;6.126;2023-07-09T10:00:59;43.50;52.00
15625;DHT22;7912;51.376;6.126;2023-07-09T10:03:37;43.50;52.10
15625;DHT22;7912;51.376;6.126;2023-07-09T10:06:23;43.70;51.90
15625;DHT22;7912;51.376;6.126;2023-07-09T10:20:32;44.40;49.80
15625;DHT22;7912;51.376;6.126;2023-07-09T10:23:27;44.60;49.50
15625;DHT22;7912;51.376;6.126;2023-07-09T10:26:09;44.70;49.60
15625;DHT22;7912;51.376;6.126;2023-07-09T10:35:18;45.00;48.90
15625;DHT22;7912;51.376;6.126;2023-07-09T10:41:03;45.20;48.40
15625;DHT22;7912;51.376;6.126;2023-07-09T10:43:48;45.20;48.30
15625;DHT22;7912;51.376;6.126;2023-07-09T10:46:25;45.30;48.00
15625;DHT22;7912;51.376;6.126;2023-07-09T10:48:56;45.40;47.90
15625;DHT22;7912;51.376;6.126;2023-07-09T10:51:39;45.50;48.00
15625;DHT22;7912;51.376;6.126;2023-07-09T10:57:22;45.70;46.90
15625;DHT22;7912;51.376;6.126;2023-07-09T10:59:56;45.70;46.20
15625;DHT22;7912;51.376;6.126;2023-07-09T11:02:28;45.80;46.40
15625;DHT22;7912;51.376;6.126;2023-07-09T11:05:00;45.70;46.10
15625;DHT22;7912;51.376;6.126;2023-07-09T11:07:36;45.60;46.40
15625;DHT22;7912;51.376;6.126;2023-07-09T11:10:30;45.60;46.40
15625;DHT22;7912;51.376;6.126;2023-07-09T11:13:47;45.60;46.40
15625;DHT22;7912;51.376;6.126;2023-07-09T11:16:35;45.60;46.90
15625;DHT22;7912;51.376;6.126;2023-07-09T11:19:15;45.60;46.50
15625;DHT22;7912;51.376;6.126;2023-07-09T11:21:58;45.60;46.60
15625;DHT22;7912;51.376;6.126;2023-07-09T11:24:44;45.60;46.00
15625;DHT22;7912;51.376;6.126;2023-07-09T11:27:27;45.60;46.50
15625;DHT22;7912;51.376;6.126;2023-07-09T11:30:22;45.50;46.30
15625;DHT22;7912;51.376;6.126;2023-07-09T11:33:03;45.40;46.40
15625;DHT22;7912;51.376;6.126;2023-07-09T11:35:52;45.20;46.30
15625;DHT22;7912;51.376;6.126;2023-07-09T11:38:44;45.00;46.80
15625;DHT22;7912;51.376;6.126;2023-07-09T11:44:16;44.70;46.70
15625;DHT22;7912;51.376;6.126;2023-07-09T11:52:49;44.50;47.10
15625;DHT22;7912;51.376;6.126;2023-07-09T11:55:28;44.60;47.40
15625;DHT22;7912;51.376;6.126;2023-07-09T11:58:04;44.50;47.60
15625;DHT22;7912;51.376;6.126;2023-07-09T12:00:50;44.60;47.80
15625;DHT22;7912;51.376;6.126;2023-07-09T12:03:32;44.60;47.60
15625;DHT22;7912;51.376;6.126;2023-07-09T12:08:48;44.70;47.70
15625;DHT22;7912;51.376;6.126;2023-07-09T12:11:23;44.80;47.90
15625;DHT22;7912;51.376;6.126;2023-07-09T12:13:53;44.90;47.70
15625;DHT22;7912;51.376;6.126;2023-07-09T12:18:54;45.10;47.50
15625;DHT22;7912;51.376;6.126;2023-07-09T12:21:23;45.10;47.50
15625;DHT22;7912;51.376;6.126;2023-07-09T12:23:54;45.00;47.40
15625;DHT22;7912;51.376;6.126;2023-07-09T12:26:25;45.00;47.10
15625;DHT22;7912;51.376;6.126;2023-07-09T12:28:56;44.80;47.10
15625;DHT22;7912;51.376;6.126;2023-07-09T12:34:33;44.50;47.30
15625;DHT22;7912;51.376;6.126;2023-07-09T12:37:01;44.40;47.50
15625;DHT22;7912;51.376;6.126;2023-07-09T12:39:29;44.30;47.80
15625;DHT22;7912;51.376;6.126;2023-07-09T12:42:01;44.30;48.00
15625;DHT22;7912;51.376;6.126;2023-07-09T12:44:35;44.20;48.20
15625;DHT22;7912;51.376;6.126;2023-07-09T12:47:03;44.10;47.70
15625;DHT22;7912;51.376;6.126;2023-07-09T12:49:38;44.10;47.90
15625;DHT22;7912;51.376;6.126;2023-07-09T12:52:17;44.00;47.60
15625;DHT22;7912;51.376;6.126;2023-07-09T12:55:19;43.90;47.30
15625;DHT22;7912;51.376;6.126;2023-07-09T12:57:56;43.90;47.90
15625;DHT22;7912;51.376;6.126;2023-07-09T13:00:30;43.80;47.60
15625;DHT22;7912;51.376;6.126;2023-07-09T13:02:59;43.70;47.60
15625;DHT22;7912;51.376;6.126;2023-07-09T13:05:27;43.60;47.70
15625;DHT22;7912;51.376;6.126;2023-07-09T13:08:00;43.50;47.90
15625;DHT22;7912;51.376;6.126;2023-07-09T13:10:38;43.40;47.90
15625;DHT22;7912;51.376;6.126;2023-07-09T13:13:12;43.20;48.10
15625;DHT22;7912;51.376;6.126;2023-07-09T13:15:43;43.10;48.40
15625;DHT22;7912;51.376;6.126;2023-07-09T13:18:14;43.00;48.60
15625;DHT22;7912;51.376;6.126;2023-07-09T13:20:44;42.90;48.30
15625;DHT22;7912;51.376;6.126;2023-07-09T13:23:25;42.70;48.60
15625;DHT22;7912;51.376;6.126;2023-07-09T13:25:54;42.50;48.60
15625;DHT22;7912;51.376;6.126;2023-07-09T13:28:28;42.40;48.80
15625;DHT22;7912;51.376;6.126;2023-07-09T13:31:00;42.10;49.00
15625;DHT22;7912;51.376;6.126;2023-07-09T13:33:34;41.90;49.20
15625;DHT22;7912;51.376;6.126;2023-07-09T13:36:04;41.60;49.30
15625;DHT22;7912;51.376;6.126;2023-07-09T13:38:50;41.30;49.60
15625;DHT22;7912;51.376;6.126;2023-07-09T13:41:19;40.90;49.80
15625;DHT22;7912;51.376;6.126;2023-07-09T13:43:49;40.60;50.00
15625;DHT22;7912;51.376;6.126;2023-07-09T13:46:17;40.20;50.20
15625;DHT22;7912;51.376;6.126;2023-07-09T13:48:45;39.90;50.70
15625;DHT22;7912;51.376;6.126;2023-07-09T13:51:22;39.60;51.00
15625;DHT22;7912;51.376;6.126;2023-07-09T13:53:52;39.20;51.70
15625;DHT22;7912;51.376;6.126;2023-07-09T13:56:22;38.90;51.80
15625;DHT22;7912;51.376;6.126;2023-07-09T13:58:50;38.60;52.50
15625;DHT22;7912;51.376;6.126;2023-07-09T14:01:21;38.30;53.20
15625;DHT22;7912;51.376;6.126;2023-07-09T14:03:50;38.00;54.60
15625;DHT22;7912;51.376;6.126;2023-07-09T14:06:21;37.70;58.30
15625;DHT22;7912;51.376;6.126;2023-07-09T14:08:48;37.20;61.00
15625;DHT22;7912;51.376;6.126;2023-07-09T14:11:16;36.60;63.00
15625;DHT22;7912;51.376;6.126;2023-07-09T14:13:48;35.90;64.50
15625;DHT22;7912;51.376;6.126;2023-07-09T14:16:17;35.10;65.50
15625;DHT22;7912;51.376;6.126;2023-07-09T14:18:46;34.20;68.00
15625;DHT22;7912;51.376;6.126;2023-07-09T14:21:17;33.10;70.60
15625;DHT22;7912;51.376;6.126;2023-07-09T14:23:47;32.20;72.50
15625;DHT22;7912;51.376;6.126;2023-07-09T14:26:16;31.30;75.80
15625;DHT22;7912;51.376;6.126;2023-07-09T14:28:43;30.40;81.30
15625;DHT22;7912;51.376;6.126;2023-07-09T14:31:27;29.80;86.40
15625;DHT22;7912;51.376;6.126;2023-07-09T14:36:57;28.60;93.50
15625;DHT22;7912;51.376;6.126;2023-07-09T14:39:27;28.20;94.80
15625;DHT22;7912;51.376;6.126;2023-07-09T14:41:57;27.90;97.40
15625;DHT22;7912;51.376;6.126;2023-07-09T14:44:29;27.60;99.90
15625;DHT22;7912;51.376;6.126;2023-07-09T14:47:04;27.50;99.90
15625;DHT22;7912;51.376;6.126;2023-07-09T14:49:42;27.30;99.90
15625;DHT22;7912;51.376;6.126;2023-07-09T14:52:18;27.20;99.90
15625;DHT22;7912;51.376;6.126;2023-07-09T14:54:48;27.10;99.90
15625;DHT22;7912;51.376;6.126;2023-07-09T14:57:22;27.00;99.90
15625;DHT22;7912;51.376;6.126;2023-07-09T14:59:52;27.00;99.90
15625;DHT22;7912;51.376;6.126;2023-07-09T15:02:43;27.00;99.90
15625;DHT22;7912;51.376;6.126;2023-07-09T15:05:20;26.90;99.90
15625;DHT22;7912;51.376;6.126;2023-07-09T15:07:49;26.90;99.90
15625;DHT22;7912;51.376;6.126;2023-07-09T15:10:23;27.00;99.90
15625;DHT22;7912;51.376;6.126;2023-07-09T15:12:54;27.00;99.90
15625;DHT22;7912;51.376;6.126;2023-07-09T15:15:28;27.10;99.90
15625;DHT22;7912;51.376;6.126;2023-07-09T15:18:00;27.10;99.90
15625;DHT22;7912;51.376;6.126;2023-07-09T15:20:37;27.20;99.90
15625;DHT22;7912;51.376;6.126;2023-07-09T15:23:05;27.30;99.90
15625;DHT22;7912;51.376;6.126;2023-07-09T15:25:35;27.30;99.90
15625;DHT22;7912;51.376;6.126;2023-07-09T15:28:03;27.40;99.90
15625;DHT22;7912;51.376;6.126;2023-07-09T15:30:30;27.50;99.90
15625;DHT22;7912;51.376;6.126;2023-07-09T15:33:00;27.60;99.90
15625;DHT22;7912;51.376;6.126;2023-07-09T15:35:36;27.70;99.90
15625;DHT22;7912;51.376;6.126;2023-07-09T15:40:48;27.90;99.90
15625;DHT22;7912;51.376;6.126;2023-07-09T15:43:16;28.10;99.90
15625;DHT22;7912;51.376;6.126;2023-07-09T15:45:46;28.30;99.90
15625;DHT22;7912;51.376;6.126;2023-07-09T15:48:27;28.60;99.90
15625;DHT22;7912;51.376;6.126;2023-07-09T15:51:03;28.80;99.90
15625;DHT22;7912;51.376;6.126;2023-07-09T15:53:32;29.20;99.90
15625;DHT22;7912;51.376;6.126;2023-07-09T15:56:11;29.50;99.90
15625;DHT22;7912;51.376;6.126;2023-07-09T15:58:44;29.80;99.90
15625;DHT22;7912;51.376;6.126;2023-07-09T16:01:14;30.10;99.90
15625;DHT22;7912;51.376;6.126;2023-07-09T16:03:53;30.40;99.90
15625;DHT22;7912;51.376;6.126;2023-07-09T16:06:25;30.70;99.90
15625;DHT22;7912;51.376;6.126;2023-07-09T16:08:53;31.00;99.90
15625;DHT22;7912;51.376;6.126;2023-07-09T16:11:22;31.40;99.90
15625;DHT22;7912;51.376;6.126;2023-07-09T16:13:52;31.70;99.90
15625;DHT22;7912;51.376;6.126;2023-07-09T16:16:24;32.10;99.90
15625;DHT22;7912;51.376;6.126;2023-07-09T16:18:51;32.40;99.90
15625;DHT22;7912;51.376;6.126;2023-07-09T16:21:23;32.60;99.90
15625;DHT22;7912;51.376;6.126;2023-07-09T16:23:57;32.70;99.90
15625;DHT22;7912;51.376;6.126;2023-07-09T16:26:27;32.80;99.80
15625;DHT22;7912;51.376;6.126;2023-07-09T16:28:55;32.80;99.70
15625;DHT22;7912;51.376;6.126;2023-07-09T16:31:22;32.80;99.40
15625;DHT22;7912;51.376;6.126;2023-07-09T16:33:50;32.70;99.20
15625;DHT22;7912;51.376;6.126;2023-07-09T16:36:18;32.60;99.30
15625;DHT22;7912;51.376;6.126;2023-07-09T16:38:46;32.40;99.50
15625;DHT22;7912;51.376;6.126;2023-07-09T16:41:13;32.30;99.30
15625;DHT22;7912;51.376;6.126;2023-07-09T16:43:41;32.10;99.30
15625;DHT22;7912;51.376;6.126;2023-07-09T16:46:38;31.90;99.50
15625;DHT22;7912;51.376;6.126;2023-07-09T16:49:30;31.70;99.90
15625;DHT22;7912;51.376;6.126;2023-07-09T16:54:54;31.40;99.90
15625;DHT22;7912;51.376;6.126;2023-07-09T16:57:24;31.30;99.90
15625;DHT22;7912;51.376;6.126;2023-07-09T17:02:39;30.90;99.90
15625;DHT22;7912;51.376;6.126;2023-07-09T17:05:07;30.80;99.90
15625;DHT22;7912;51.376;6.126;2023-07-09T17:07:34;30.70;99.90
15625;DHT22;7912;51.376;6.126;2023-07-09T17:10:02;30.60;99.90
15625;DHT22;7912;51.376;6.126;2023-07-09T17:12:31;30.60;99.90
15625;DHT22;7912;51.376;6.126;2023-07-09T17:15:02;30.60;99.90
15625;DHT22;7912;51.376;6.126;2023-07-09T17:17:45;30.70;99.90
15625;DHT22;7912;51.376;6.126;2023-07-09T17:20:13;30.80;99.90
15625;DHT22;7912;51.376;6.126;2023-07-09T17:22:42;30.90;99.90
15625;DHT22;7912;51.376;6.126;2023-07-09T17:25:28;31.10;99.90
15625;DHT22;7912;51.376;6.126;2023-07-09T17:28:24;31.30;99.90
15625;DHT22;7912;51.376;6.126;2023-07-09T17:30:57;31.40;99.90